Time;durP1;ratioP1;P1;durP2;ratioP2;P2;SDS_P1;SDS_P2;PMS_P1;PMS_P2;Temp;Humidity;BMP_temperature;BMP_pressure;BME280_temperature;BME280_humidity;BME280_pressure;Samples;Min_cycle;Max_cycle;Signal;HPM_P1;HPM_P2
2023/07/08 00:00:22;;;;;;;5.85;4.35;;;;;;;18.28;72.47;100168.22;5092850;28;20081;-82
2023/07/08 00:02:48;;;;;;;6.72;4.45;;;;;;;18.30;72.46;100169.81;5092274;28;20028;-82
2023/07/08 00:05:16;;;;;;;5.00;4.30;;;;;;;18.24;73.08;100162.31;5092554;28;20476;-82
2023/07/08 00:07:42;;;;;;;5.63;4.35;;;;;;;18.26;72.81;100171.00;5092530;28;20126;-82
2023/07/08 00:10:12;;;;;;;4.22;3.83;;;;;;;18.26;73.28;100171.00;5092243;28;20092;-82
2023/07/08 00:12:37;;;;;;;5.03;4.53;;;;;;;18.26;73.35;100173.63;5091999;28;20453;-81
2023/07/08 00:15:03;;;;;;;4.80;4.30;;;;;;;18.18;73.51;100175.97;5092049;28;20104;-81
2023/07/08 00:17:28;;;;;;;5.00;4.50;;;;;;;18.11;73.73;100169.41;5092069;28;20115;-81
2023/07/08 00:19:54;;;;;;;4.63;4.20;;;;;;;17.96;73.35;100150.25;5092109;28;20062;-81
2023/07/08 00:22:20;;;;;;;5.90;4.15;;;;;;;18.02;73.69;100168.25;5092086;28;20472;-81
2023/07/08 00:24:45;;;;;;;4.70;4.22;;;;;;;18.04;73.98;100162.91;5092184;28;20025;-81
2023/07/08 00:27:13;;;;;;;7.10;4.93;;;;;;;17.85;74.28;100148.34;5091866;28;20153;-81
2023/07/08 00:29:38;;;;;;;7.00;4.47;;;;;;;17.87;74.08;100148.25;5092163;28;20035;-81
2023/07/08 00:32:15;;;;;;;4.20;3.80;;;;;;;17.97;74.42;100169.53;5091870;28;20024;-81
2023/07/08 00:34:41;;;;;;;5.25;4.43;;;;;;;17.85;74.65;100156.25;5092070;28;20469;-81
2023/07/08 00:37:12;;;;;;;7.35;4.43;;;;;;;17.77;74.47;100137.47;5091927;28;20048;-81
2023/07/08 00:39:37;;;;;;;4.85;4.45;;;;;;;17.85;74.25;100163.31;5091862;28;20044;-81
2023/07/08 00:42:15;;;;;;;4.78;4.28;;;;;;;17.77;74.73;100152.44;5091831;28;20476;-81
2023/07/08 00:44:41;;;;;;;6.15;4.53;;;;;;;17.60;74.94;100141.25;5092008;28;20028;-81
2023/07/08 00:47:11;;;;;;;5.50;4.70;;;;;;;17.66;75.17;100153.16;5091619;28;20028;-81
2023/07/08 00:49:50;;;;;;;5.40;4.55;;;;;;;17.76;75.56;100163.94;5091855;28;20046;-81
2023/07/08 00:52:19;;;;;;;6.65;4.70;;;;;;;17.73;75.59;100161.47;5092403;28;20028;-81
2023/07/08 00:54:44;;;;;;;4.85;4.32;;;;;;;17.56;75.51;100144.19;5091983;28;20016;-81
2023/07/08 00:57:11;;;;;;;4.72;4.25;;;;;;;17.56;75.41;100138.91;5091563;28;20035;-81
2023/07/08 00:59:42;;;;;;;5.32;4.50;;;;;;;17.65;75.65;100162.00;5095611;28;20093;-81
2023/07/08 01:02:10;;;;;;;4.95;4.22;;;;;;;17.44;76.09;100141.44;5095134;28;20487;-81
2023/07/08 01:04:51;;;;;;;4.95;4.35;;;;;;;17.38;76.39;100136.59;5095275;28;20042;-81
2023/07/08 01:07:21;;;;;;;6.03;4.13;;;;;;;17.30;76.76;100124.88;5095656;28;20038;-81
2023/07/08 01:09:51;;;;;;;6.05;4.32;;;;;;;17.33;76.80;100125.53;5095435;28;20039;-81
2023/07/08 01:12:22;;;;;;;7.70;5.72;;;;;;;17.25;76.96;100116.44;5095109;28;20024;-81
2023/07/08 01:14:49;;;;;;;5.72;4.30;;;;;;;17.29;77.37;100128.47;5095342;28;20066;-81
2023/07/08 01:17:14;;;;;;;5.32;4.78;;;;;;;17.18;77.25;100108.94;5095049;28;20035;-81
2023/07/08 01:19:44;;;;;;;5.03;4.50;;;;;;;17.27;77.36;100117.19;5095520;28;20028;-81
2023/07/08 01:22:10;;;;;;;4.38;3.97;;;;;;;17.34;77.41;100139.53;5095081;28;20047;-81
2023/07/08 01:24:38;;;;;;;5.28;4.55;;;;;;;17.21;77.76;100123.72;5095392;28;20042;-81
2023/07/08 01:27:06;;;;;;;5.53;4.43;;;;;;;17.29;77.67;100129.31;5094832;28;20352;-81
2023/07/08 01:29:32;;;;;;;5.30;4.53;;;;;;;17.10;77.71;100110.41;5093644;28;20085;-81
2023/07/08 01:32:02;;;;;;;6.13;4.85;;;;;;;17.19;77.83;100123.81;5093740;28;20024;-81
2023/07/08 01:34:28;;;;;;;7.13;4.95;;;;;;;17.24;78.73;100136.66;5094878;28;20028;-81
2023/07/08 01:36:56;;;;;;;7.78;5.05;;;;;;;17.15;78.89;100122.34;5094513;28;20062;-81
2023/07/08 01:39:23;;;;;;;5.55;4.68;;;;;;;17.16;78.62;100128.44;5094798;28;20031;-81
2023/07/08 01:41:49;;;;;;;6.07;4.53;;;;;;;17.01;78.82;100106.59;5094841;28;20414;-81
2023/07/08 01:44:28;;;;;;;5.18;4.55;;;;;;;16.81;79.32;100078.13;5094591;28;20024;-81
2023/07/08 01:46:57;;;;;;;5.40;4.38;;;;;;;16.82;79.55;100088.56;5094621;28;20047;-81
2023/07/08 01:49:23;;;;;;;5.25;4.60;;;;;;;16.97;80.17;100113.00;5094849;28;20483;-81
2023/07/08 01:51:50;;;;;;;6.68;4.45;;;;;;;16.93;80.03;100116.78;5094599;28;20105;-81
2023/07/08 01:54:15;;;;;;;5.45;4.60;;;;;;;16.88;79.89;100108.34;5094227;28;20024;-81
2023/07/08 01:56:40;;;;;;;4.82;4.32;;;;;;;16.90;79.50;100112.59;5094294;28;20491;-81
2023/07/08 01:59:06;;;;;;;5.07;4.57;;;;;;;16.95;80.07;100128.06;5094278;28;20093;-81
2023/07/08 02:01:31;;;;;;;5.07;4.57;;;;;;;16.98;79.99;100138.41;5094463;28;20028;-81
2023/07/08 02:03:56;;;;;;;4.53;4.13;;;;;;;16.82;80.02;100114.88;5094079;28;20035;-81
2023/07/08 02:06:22;;;;;;;5.55;4.78;;;;;;;16.77;80.10;100110.81;5094257;28;20024;-81
2023/07/08 02:08:47;;;;;;;5.40;4.47;;;;;;;16.75;80.37;100110.94;5094142;28;20071;-81
2023/07/08 02:11:12;;;;;;;7.18;5.07;;;;;;;16.73;80.58;100106.72;5093178;28;20054;-81
2023/07/08 02:13:38;;;;;;;6.13;4.47;;;;;;;16.69;80.53;100104.25;5094348;28;20036;-81
2023/07/08 02:16:03;;;;;;;5.63;4.60;;;;;;;16.51;80.89;100083.56;5094081;28;20020;-81
2023/07/08 02:18:32;;;;;;;5.93;4.45;;;;;;;16.73;81.39;100133.00;5094007;28;20666;-81
2023/07/08 02:20:57;;;;;;;4.97;4.50;;;;;;;16.65;81.32;100112.47;5093885;28;20024;-81
2023/07/08 02:23:23;;;;;;;5.63;4.80;;;;;;;16.71;81.13;100139.19;5093907;28;20434;-81
2023/07/08 02:25:52;;;;;;;7.20;5.30;;;;;;;16.65;81.70;100130.88;5093750;28;20027;-81
2023/07/08 02:28:18;;;;;;;6.20;5.22;;;;;;;16.56;81.79;100124.41;5093843;28;20095;-81
2023/07/08 02:30:45;;;;;;;5.60;5.03;;;;;;;16.56;81.74;100113.00;5094010;28;20043;-81
2023/07/08 02:33:11;;;;;;;6.25;4.45;;;;;;;16.54;81.57;100121.00;5093859;28;20125;-81
2023/07/08 02:35:36;;;;;;;7.53;5.20;;;;;;;16.48;81.80;100113.53;5093787;28;20024;-81
2023/07/08 02:38:03;;;;;;;6.32;5.13;;;;;;;16.51;81.62;100123.84;5093517;28;20387;-81
2023/07/08 02:40:28;;;;;;;6.10;4.43;;;;;;;16.63;81.20;100146.72;5093504;28;20414;-81
2023/07/08 02:42:54;;;;;;;6.65;4.93;;;;;;;16.67;81.23;100148.22;5093725;28;20085;-81
2023/07/08 02:45:19;;;;;;;5.60;5.10;;;;;;;16.60;81.23;100143.44;5093458;28;20031;-81
2023/07/08 02:47:45;;;;;;;5.85;4.45;;;;;;;16.63;81.32;100145.88;5093487;28;20035;-81
2023/07/08 02:50:11;;;;;;;5.32;4.82;;;;;;;16.50;81.71;100137.09;5093405;28;20020;-81
2023/07/08 02:52:37;;;;;;;5.30;4.75;;;;;;;16.57;82.44;100146.28;5093753;28;20383;-81
2023/07/08 02:55:03;;;;;;;5.53;4.97;;;;;;;16.43;82.67;100129.59;5093007;28;20027;-81
2023/07/08 02:57:28;;;;;;;5.03;4.50;;;;;;;16.26;82.89;100100.88;5093468;28;20395;-81
2023/07/08 02:59:54;;;;;;;5.80;4.47;;;;;;;16.33;82.86;100104.81;5093463;28;20371;-81
2023/07/08 03:02:21;;;;;;;7.65;4.95;;;;;;;16.29;82.83;100103.31;5093167;28;20028;-81
2023/07/08 03:04:46;;;;;;;6.20;5.05;;;;;;;16.33;83.25;100115.34;5093345;28;20532;-81
2023/07/08 03:07:12;;;;;;;5.88;5.32;;;;;;;16.27;83.29;100112.25;5092874;28;20020;-81
2023/07/08 03:09:38;;;;;;;7.15;5.43;;;;;;;16.34;83.48;100119.63;5093104;28;20099;-81
2023/07/08 03:12:05;;;;;;;5.93;5.32;;;;;;;16.31;83.76;100116.38;5092993;28;20539;-81
2023/07/08 03:14:31;;;;;;;6.53;5.07;;;;;;;16.37;83.74;100122.09;5093185;28;20104;-81
2023/07/08 03:16:56;;;;;;;6.43;5.10;;;;;;;16.43;83.69;100129.59;5093109;28;20050;-81
2023/07/08 03:19:21;;;;;;;10.30;5.28;;;;;;;16.47;83.55;100138.13;5092807;28;20095;-81
2023/07/08 03:21:47;;;;;;;6.55;4.63;;;;;;;16.46;83.44;100136.44;5092879;28;20032;-81
2023/07/08 03:24:13;;;;;;;6.65;5.05;;;;;;;16.34;83.86;100124.91;5092973;28;20024;-81
2023/07/08 03:26:39;;;;;;;8.13;5.75;;;;;;;16.47;83.68;100143.38;5092944;28;20031;-81
2023/07/08 03:29:05;;;;;;;7.93;5.80;;;;;;;16.49;84.21;100152.03;5092661;28;20024;-81
2023/07/08 03:31:30;;;;;;;6.35;5.05;;;;;;;16.39;83.90;100128.09;5093093;28;20525;-81
2023/07/08 03:33:55;;;;;;;5.88;5.28;;;;;;;16.51;84.19;100144.88;5092876;28;20482;-81
2023/07/08 03:36:24;;;;;;;5.72;5.13;;;;;;;16.48;84.14;100131.94;5092621;28;20480;-81
2023/07/08 03:38:51;;;;;;;7.20;5.53;;;;;;;16.49;84.08;100140.66;5092551;28;20024;-81
2023/07/08 03:41:16;;;;;;;5.22;4.68;;;;;;;16.53;83.68;100134.28;5092467;28;20058;-81
2023/07/08 03:43:41;;;;;;;5.78;5.18;;;;;;;16.66;83.96;100154.44;5092518;28;20523;-81
2023/07/08 03:46:10;;;;;;;7.22;5.07;;;;;;;16.52;84.58;100117.66;5092631;28;20043;-81
2023/07/08 03:48:36;;;;;;;5.68;5.00;;;;;;;16.66;84.89;100128.13;5092478;28;20035;-81
2023/07/08 03:51:01;;;;;;;6.50;4.68;;;;;;;16.81;84.70;100141.25;5092305;28;20073;-81
2023/07/08 03:53:26;;;;;;;7.88;5.57;;;;;;;16.90;84.56;100141.53;5092644;28;20028;-81
2023/07/08 03:55:52;;;;;;;7.07;5.53;;;;;;;16.77;85.15;100109.06;5092627;28;20115;-81
2023/07/08 03:58:17;;;;;;;5.55;5.05;;;;;;;16.86;85.18;100113.72;5092436;28;20098;-81
2023/07/08 04:00:42;;;;;;;9.90;6.00;;;;;;;16.95;85.00;100107.84;5092699;28;20024;-81
2023/07/08 04:03:11;;;;;;;7.93;5.13;;;;;;;17.24;85.24;100144.56;5091903;28;20024;-81
2023/07/08 04:05:36;;;;;;;6.00;5.40;;;;;;;17.22;85.26;100120.13;5092186;28;20028;-81
2023/07/08 04:08:01;;;;;;;6.22;5.20;;;;;;;17.35;85.03;100131.50;5091864;28;20103;-81
2023/07/08 04:10:27;;;;;;;7.13;5.60;;;;;;;17.53;84.59;100144.38;5092158;28;20118;-81
2023/07/08 04:12:52;;;;;;;6.45;5.03;;;;;;;17.68;84.63;100148.63;5092645;28;20028;-81
2023/07/08 04:15:17;;;;;;;6.85;5.72;;;;;;;17.95;84.67;100149.41;5092159;28;20074;-81
2023/07/08 04:17:46;;;;;;;7.03;5.88;;;;;;;18.23;83.30;100123.72;5072354;28;20078;-81
2023/07/08 04:20:18;;;;;;;8.95;6.05;;;;;;;18.81;81.92;100122.22;5071703;28;20143;-81
2023/07/08 04:22:43;;;;;;;9.07;5.88;;;;;;;19.51;80.22;100131.09;5071810;28;21142;-81
2023/07/08 04:25:11;;;;;;;8.10;5.15;;;;;;;20.42;77.31;100146.91;5071720;28;20025;-82
2023/07/08 04:27:37;;;;;;;6.35;5.65;;;;;;;21.64;72.37;100115.66;5072036;28;20400;-82
2023/07/08 04:30:04;;;;;;;7.40;6.10;;;;;;;23.42;66.15;100137.06;5072071;28;20033;-82
2023/07/08 04:32:29;;;;;;;9.63;5.00;;;;;;;24.69;61.65;100137.47;5072288;28;20032;-82
2023/07/08 04:34:54;;;;;;;6.57;5.22;;;;;;;25.49;59.00;100143.69;5075783;28;20036;-82
2023/07/08 04:37:20;;;;;;;8.60;5.40;;;;;;;25.28;58.60;100131.56;5075530;28;20119;-82
2023/07/08 04:39:46;;;;;;;6.13;5.07;;;;;;;24.88;59.95;100137.34;5075942;28;20115;-82
2023/07/08 04:42:15;;;;;;;6.85;4.88;;;;;;;24.51;61.02;100134.78;5075297;28;20455;-82
2023/07/08 04:44:41;;;;;;;5.75;5.18;;;;;;;24.19;60.70;100125.41;5075724;28;20025;-82
2023/07/08 04:47:08;;;;;;;6.90;4.88;;;;;;;24.33;61.16;100137.38;5075326;28;20036;-82
2023/07/08 04:49:34;;;;;;;7.00;5.00;;;;;;;24.77;60.82;100129.56;5075534;28;20092;-82
2023/07/08 04:52:01;;;;;;;6.00;5.40;;;;;;;25.62;58.48;100114.81;5075782;28;20027;-82
2023/07/08 04:54:27;;;;;;;8.10;5.32;;;;;;;27.28;55.64;100139.09;5075378;28;20028;-82
2023/07/08 04:56:53;;;;;;;6.53;5.35;;;;;;;28.52;53.52;100135.97;5074123;28;20384;-82
2023/07/08 04:59:22;;;;;;;6.85;5.35;;;;;;;28.90;51.58;100116.47;5074999;28;20029;-82
2023/07/08 05:01:48;;;;;;;7.25;5.32;;;;;;;28.34;51.73;100120.13;5075147;28;20085;-82
2023/07/08 05:04:15;;;;;;;7.60;4.82;;;;;;;27.69;53.46;100127.53;5075167;28;20410;-83
2023/07/08 05:06:41;;;;;;;6.15;4.85;;;;;;;27.00;56.03;100106.47;5074064;28;20034;-83
2023/07/08 05:09:07;;;;;;;7.07;4.90;;;;;;;26.61;55.91;100096.41;5075031;28;20052;-83
2023/07/08 05:11:33;;;;;;;7.03;5.10;;;;;;;26.96;56.16;100131.03;5075122;28;20040;-83
2023/07/08 05:13:58;;;;;;;5.72;4.93;;;;;;;27.37;55.00;100126.56;5075229;28;20020;-82
2023/07/08 05:16:24;;;;;;;6.82;4.80;;;;;;;28.34;53.18;100103.22;5074766;28;20029;-83
2023/07/08 05:18:49;;;;;;;5.32;4.60;;;;;;;29.90;50.82;100127.84;5074824;28;20077;-83
2023/07/08 05:21:17;;;;;;;7.22;4.80;;;;;;;30.49;49.19;100119.75;5074928;28;20035;-83
2023/07/08 05:23:44;;;;;;;6.82;4.97;;;;;;;30.05;49.04;100099.13;5052239;28;20033;-82
2023/07/08 05:26:09;;;;;;;5.55;4.47;;;;;;;29.46;49.59;100122.41;5052065;28;20090;-83
2023/07/08 05:28:34;;;;;;;8.50;4.85;;;;;;;28.47;49.85;100105.34;5052385;28;20044;-83
2023/07/08 05:31:00;;;;;;;6.63;5.18;;;;;;;28.04;51.85;100115.56;5052286;28;20029;-83
2023/07/08 05:33:27;;;;;;;5.80;4.43;;;;;;;28.19;52.25;100121.03;5052190;28;20092;-83
2023/07/08 05:35:53;;;;;;;6.10;4.60;;;;;;;28.54;51.46;100130.44;5051977;28;20033;-83
2023/07/08 05:38:19;;;;;;;6.47;5.00;;;;;;;29.46;50.26;100111.69;5051960;28;20100;-83
2023/07/08 05:40:53;;;;;;;4.97;4.57;;;;;;;30.46;48.33;100111.22;5052180;28;20045;-83
2023/07/08 05:43:19;;;;;;;4.93;4.43;;;;;;;30.42;48.13;100120.69;5051728;28;20044;-83
2023/07/08 05:45:45;;;;;;;5.93;4.50;;;;;;;29.81;48.90;100096.75;5050755;28;20041;-82
2023/07/08 05:48:11;;;;;;;4.43;3.90;;;;;;;29.32;48.95;100105.25;5051701;28;20025;-82
2023/07/08 05:50:36;;;;;;;4.78;4.22;;;;;;;28.94;51.10;100118.59;5052059;28;20044;-82
2023/07/08 05:53:02;;;;;;;4.60;4.18;;;;;;;28.69;49.93;100130.50;5051886;28;20532;-82
2023/07/08 05:55:27;;;;;;;6.40;4.72;;;;;;;28.40;50.62;100126.69;5069911;28;20059;-82
2023/07/08 05:57:53;;;;;;;4.85;4.35;;;;;;;28.35;52.04;100134.34;5074145;28;20021;-82
2023/07/08 06:00:18;;;;;;;5.63;4.30;;;;;;;28.38;52.02;100122.50;5074310;28;20059;-83
2023/07/08 06:02:43;;;;;;;4.57;4.18;;;;;;;28.59;50.95;100133.44;5074410;28;20020;-83
2023/07/08 06:05:09;;;;;;;5.13;4.18;;;;;;;28.56;51.12;100141.81;5074268;28;20021;-82
2023/07/08 06:07:34;;;;;;;6.38;4.38;;;;;;;28.48;50.43;100115.88;5074296;28;20036;-83
2023/07/08 06:10:00;;;;;;;4.25;3.88;;;;;;;28.76;50.49;100124.28;5074043;28;20055;-82
2023/07/08 06:12:25;;;;;;;4.50;4.10;;;;;;;28.95;50.93;100112.25;5073826;28;20024;-83
2023/07/08 06:14:51;;;;;;;4.82;4.15;;;;;;;29.40;50.65;100139.22;5074071;28;20029;-82
2023/07/08 06:17:17;;;;;;;4.72;4.22;;;;;;;29.59;49.66;100122.66;5073682;28;20028;-83
2023/07/08 06:19:43;;;;;;;4.35;3.95;;;;;;;29.94;49.87;100126.44;5074244;28;20051;-83
2023/07/08 06:22:08;;;;;;;7.35;4.47;;;;;;;30.25;49.03;100130.81;5074295;28;20024;-82
2023/07/08 06:24:33;;;;;;;4.25;3.85;;;;;;;30.47;48.19;100124.47;5073606;28;20028;-82
2023/07/08 06:26:59;;;;;;;4.75;4.35;;;;;;;30.80;47.31;100116.81;5073755;28;20031;-82
2023/07/08 06:29:25;;;;;;;8.10;4.32;;;;;;;31.14;47.12;100119.78;5073412;28;20059;-82
2023/07/08 06:31:50;;;;;;;5.93;3.67;;;;;;;31.47;46.24;100110.16;5072164;28;20025;-83
2023/07/08 06:34:15;;;;;;;4.28;3.85;;;;;;;32.03;45.41;100125.47;5073559;28;20029;-84
2023/07/08 06:36:41;;;;;;;4.95;4.45;;;;;;;32.74;44.69;100127.78;5073278;28;20158;-83
2023/07/08 06:39:08;;;;;;;3.40;3.10;;;;;;;33.89;42.75;100120.38;5073681;28;20024;-83
2023/07/08 06:41:34;;;;;;;4.32;3.92;;;;;;;34.99;41.17;100121.13;5073167;28;20437;-84
2023/07/08 06:44:00;;;;;;;4.78;3.58;;;;;;;36.16;40.22;100134.84;5073548;28;20024;-82
2023/07/08 06:46:25;;;;;;;4.18;3.78;;;;;;;37.26;39.49;100123.69;5072960;28;20039;-82
2023/07/08 06:48:50;;;;;;;3.80;3.50;;;;;;;38.65;37.99;100131.06;5073565;28;20047;-82
2023/07/08 06:51:16;;;;;;;4.40;4.00;;;;;;;39.29;37.52;100120.75;5073310;28;20028;-82
2023/07/08 06:53:41;;;;;;;5.07;3.90;;;;;;;40.39;36.52;100129.88;5073248;28;20119;-82
2023/07/08 06:56:08;;;;;;;5.68;4.03;;;;;;;41.49;35.45;100135.00;5073253;28;20036;-84
2023/07/08 06:58:33;;;;;;;5.05;4.10;;;;;;;42.31;34.05;100132.69;5073090;28;20040;-84
2023/07/08 07:00:59;;;;;;;4.68;3.50;;;;;;;42.61;34.53;100130.03;5072831;28;20423;-84
2023/07/08 07:03:24;;;;;;;4.07;3.70;;;;;;;42.43;33.79;100132.44;5072812;28;20021;-84
2023/07/08 07:05:49;;;;;;;4.35;3.70;;;;;;;43.22;33.98;100131.19;5072878;28;20032;-83
2023/07/08 07:08:15;;;;;;;4.47;4.07;;;;;;;44.29;33.51;100144.63;5072771;28;20027;-81
2023/07/08 07:10:40;;;;;;;4.32;3.92;;;;;;;45.13;32.35;100145.44;5072794;28;20036;-83
2023/07/08 07:13:05;;;;;;;4.18;3.88;;;;;;;45.84;32.84;100140.38;5072623;28;20495;-84
2023/07/08 07:15:32;;;;;;;4.38;4.07;;;;;;;46.41;31.81;100122.81;5072335;28;20025;-83
2023/07/08 07:17:57;;;;;;;6.65;4.60;;;;;;;46.91;31.16;100144.41;5072750;28;20025;-84
2023/07/08 07:20:23;;;;;;;4.85;4.40;;;;;;;47.13;31.19;100141.00;5072305;28;20039;-81
2023/07/08 07:22:48;;;;;;;4.75;4.35;;;;;;;47.64;30.47;100153.88;5072660;28;20048;-81
2023/07/08 07:25:14;;;;;;;4.78;4.38;;;;;;;47.73;30.20;100141.00;5072695;28;20104;-81
2023/07/08 07:27:39;;;;;;;4.97;4.45;;;;;;;47.59;30.45;100131.91;5072428;28;20090;-81
2023/07/08 07:30:05;;;;;;;5.78;4.05;;;;;;;47.82;30.85;100149.38;5072472;28;20025;-81
2023/07/08 07:32:32;;;;;;;4.40;4.10;;;;;;;48.20;30.48;100136.97;5072774;28;20029;-81
2023/07/08 07:34:59;;;;;;;5.90;4.65;;;;;;;48.65;30.32;100148.13;5072581;28;20407;-81
2023/07/08 07:37:24;;;;;;;5.57;4.88;;;;;;;48.89;30.35;100156.13;5072021;28;20045;-81
2023/07/08 07:39:49;;;;;;;4.38;3.97;;;;;;;49.15;30.71;100152.75;5072680;28;20033;-81
2023/07/08 07:42:16;;;;;;;4.90;4.50;;;;;;;49.20;30.47;100145.13;5072274;28;20434;-81
2023/07/08 07:44:42;;;;;;;4.60;4.20;;;;;;;49.35;29.96;100143.06;5072283;28;20033;-82
2023/07/08 07:47:09;;;;;;;5.00;4.50;;;;;;;49.61;30.21;100154.28;5072390;28;20032;-83
2023/07/08 07:49:34;;;;;;;4.72;4.43;;;;;;;49.55;30.25;100159.13;5072297;28;20326;-81
2023/07/08 07:52:00;;;;;;;5.53;4.82;;;;;;;49.01;29.87;100140.91;5072343;28;20131;-81
2023/07/08 07:54:25;;;;;;;5.15;4.75;;;;;;;48.88;30.16;100139.84;5072145;28;20056;-81
2023/07/08 07:56:51;;;;;;;6.10;4.50;;;;;;;49.01;30.12;100147.25;5090773;28;20263;-81
2023/07/08 07:59:17;;;;;;;4.35;3.80;;;;;;;49.14;30.07;100143.63;5091688;28;20534;-81
2023/07/08 08:01:43;;;;;;;5.05;4.30;;;;;;;49.21;29.90;100154.22;5092175;28;20024;-82
2023/07/08 08:04:10;;;;;;;4.95;4.55;;;;;;;49.23;29.14;100140.09;5092141;28;20037;-81
2023/07/08 08:06:35;;;;;;;4.90;4.50;;;;;;;49.05;29.30;100139.13;5091512;28;20399;-82
2023/07/08 08:09:00;;;;;;;3.95;3.70;;;;;;;48.06;29.75;100140.91;5091422;28;20020;-81
2023/07/08 08:11:26;;;;;;;5.28;4.00;;;;;;;47.47;29.73;100133.22;5091120;28;20445;-81
2023/07/08 08:13:53;;;;;;;3.67;3.38;;;;;;;46.95;30.19;100140.75;5091989;28;20027;-81
2023/07/08 08:16:20;;;;;;;4.13;3.75;;;;;;;46.47;30.23;100151.91;5091542;28;20110;-81
2023/07/08 08:18:45;;;;;;;4.30;3.47;;;;;;;45.25;30.65;100156.06;5092083;28;20633;-81
2023/07/08 08:21:10;;;;;;;4.50;3.50;;;;;;;43.33;31.37;100147.34;5091948;28;20028;-81
2023/07/08 08:23:36;;;;;;;4.38;3.97;;;;;;;41.59;32.91;100124.16;5091849;28;20054;-81
2023/07/08 08:26:02;;;;;;;3.72;3.42;;;;;;;40.42;33.61;100125.00;5091686;28;20039;-81
2023/07/08 08:28:27;;;;;;;3.15;2.70;;;;;;;39.29;33.76;100112.59;5091687;28;20054;-81
2023/07/08 08:30:52;;;;;;;3.90;3.50;;;;;;;38.43;33.61;100129.03;5091694;28;20032;-83
2023/07/08 08:33:18;;;;;;;3.47;3.17;;;;;;;37.64;33.75;100131.41;5091901;28;20074;-84
2023/07/08 08:35:44;;;;;;;3.35;3.15;;;;;;;36.89;34.41;100117.59;5091704;28;20031;-83
2023/07/08 08:38:10;;;;;;;3.88;3.28;;;;;;;36.21;35.33;100095.13;5091721;28;20048;-83
2023/07/08 08:40:35;;;;;;;4.07;3.10;;;;;;;36.02;35.84;100131.44;5091239;28;20098;-83
2023/07/08 08:43:09;;;;;;;3.15;2.85;;;;;;;35.22;34.75;100121.34;5091296;28;20028;-83
2023/07/08 08:45:57;;;;;;;3.67;3.10;;;;;;;34.62;35.73;100131.75;5091402;28;20027;-83
2023/07/08 08:48:26;;;;;;;3.53;3.22;;;;;;;34.22;36.78;100123.81;5090271;28;20036;-83
2023/07/08 08:50:55;;;;;;;4.13;3.72;;;;;;;34.12;36.89;100125.28;5091231;28;20642;-83
2023/07/08 08:53:23;;;;;;;3.55;3.25;;;;;;;33.85;37.32;100102.91;5091265;28;20112;-83
2023/07/08 08:55:56;;;;;;;3.50;3.20;;;;;;;33.84;37.25;100118.28;5091482;28;20047;-83
2023/07/08 08:58:30;;;;;;;3.67;3.33;;;;;;;33.75;37.72;100117.69;5091713;28;20032;-83
2023/07/08 09:00:57;;;;;;;4.93;3.15;;;;;;;33.57;38.37;100125.59;5091349;28;20054;-83
2023/07/08 09:03:47;;;;;;;4.45;4.05;;;;;;;33.42;37.75;100120.41;5091184;28;20028;-83
2023/07/08 09:06:18;;;;;;;3.35;3.05;;;;;;;33.12;38.06;100095.72;5091193;28;20484;-83
2023/07/08 09:08:44;;;;;;;5.70;3.30;;;;;;;32.91;38.13;100112.91;5089790;28;20028;-83
2023/07/08 09:11:34;;;;;;;4.03;3.63;;;;;;;32.68;39.12;100117.84;5091046;28;20030;-83
2023/07/08 09:13:59;;;;;;;3.70;3.30;;;;;;;32.63;39.50;100096.88;5091282;28;20032;-83
2023/07/08 09:16:38;;;;;;;3.60;3.35;;;;;;;32.59;39.03;100067.81;5090862;28;20028;-83
2023/07/08 09:19:32;;;;;;;4.28;3.45;;;;;;;32.91;39.19;100112.91;5093084;28;20020;-83
2023/07/08 09:22:19;;;;;;;3.70;3.35;;;;;;;32.88;39.36;100101.69;5095100;28;20088;-83
2023/07/08 09:24:56;;;;;;;4.28;3.50;;;;;;;32.70;38.32;100096.88;5094564;28;20035;-83
2023/07/08 09:27:22;;;;;;;5.18;4.30;;;;;;;32.51;38.28;100087.72;5095124;28;20107;-83
2023/07/08 09:29:47;;;;;;;3.47;3.13;;;;;;;32.37;39.00;100091.38;5094839;28;20185;-83
2023/07/08 09:32:21;;;;;;;3.95;3.35;;;;;;;32.35;39.63;100094.25;5094900;28;20383;-83
2023/07/08 09:34:54;;;;;;;3.67;3.38;;;;;;;32.34;39.40;100078.31;5094465;28;20387;-83
2023/07/08 09:37:25;;;;;;;5.35;3.50;;;;;;;32.52;39.30;100098.28;5094636;28;20044;-83
2023/07/08 09:39:52;;;;;;;3.80;3.22;;;;;;;32.51;39.62;100085.84;5094859;28;20035;-82
2023/07/08 09:42:18;;;;;;;4.07;3.60;;;;;;;32.45;38.90;100081.28;5074645;28;20063;-83
2023/07/08 09:44:45;;;;;;;3.67;3.38;;;;;;;32.48;39.56;100077.31;5074067;28;20020;-82
2023/07/08 09:47:30;;;;;;;3.45;3.15;;;;;;;32.43;38.51;100077.13;5074850;28;20043;-84
2023/07/08 09:49:57;;;;;;;5.68;4.25;;;;;;;32.30;37.11;100075.19;5074891;28;20029;-83
2023/07/08 09:52:23;;;;;;;3.78;3.47;;;;;;;32.03;38.01;100056.22;5074523;28;20033;-83
2023/07/08 09:54:49;;;;;;;4.70;4.07;;;;;;;31.84;37.62;100051.56;5074434;28;20017;-83
2023/07/08 09:57:23;;;;;;;3.35;3.08;;;;;;;31.95;38.93;100083.34;5074327;28;20024;-83
2023/07/08 09:59:58;;;;;;;3.45;3.13;;;;;;;31.95;38.51;100083.34;5073956;28;20104;-83
2023/07/08 10:02:35;;;;;;;4.90;3.92;;;;;;;31.83;38.25;100084.06;5094381;28;20057;-83
2023/07/08 10:05:21;;;;;;;4.43;3.45;;;;;;;31.67;38.87;100061.81;5094201;28;20067;-81
2023/07/08 10:07:49;;;;;;;3.80;3.38;;;;;;;31.77;39.57;100077.59;5090737;28;20031;-81
2023/07/08 10:10:18;;;;;;;4.18;3.78;;;;;;;31.71;39.57;100062.25;5094276;28;20024;-81
2023/07/08 10:13:11;;;;;;;3.90;3.50;;;;;;;31.91;39.85;100079.38;5093595;28;20036;-81
2023/07/08 10:15:41;;;;;;;4.13;3.72;;;;;;;31.87;39.30;100066.53;5092792;28;20036;-82
2023/07/08 10:18:15;;;;;;;6.55;3.47;;;;;;;31.98;39.75;100076.69;5093866;28;20035;-83
2023/07/08 10:21:07;;;;;;;3.50;3.20;;;;;;;31.89;40.11;100057.19;5094220;28;20047;-84
2023/07/08 10:23:51;;;;;;;3.97;3.58;;;;;;;31.98;38.00;100077.56;5094153;28;20028;-83
2023/07/08 10:26:27;;;;;;;3.35;3.03;;;;;;;31.71;38.12;100073.84;5094098;28;20029;-83
2023/07/08 10:29:27;;;;;;;4.80;3.40;;;;;;;31.68;38.90;100076.94;5093193;28;20032;-83
2023/07/08 10:32:19;;;;;;;4.97;3.92;;;;;;;31.42;38.31;100074.09;5089428;28;20032;-83
2023/07/08 10:34:45;;;;;;;3.80;3.42;;;;;;;31.12;38.38;100068.03;5087321;28;20028;-83
2023/07/08 10:37:33;;;;;;;5.32;3.55;;;;;;;30.74;38.52;100046.81;5089762;28;20044;-83
2023/07/08 10:40:06;;;;;;;4.50;3.83;;;;;;;30.77;38.86;100066.09;5088468;28;20028;-83
2023/07/08 10:42:58;;;;;;;3.92;3.30;;;;;;;30.72;40.38;100038.94;5089080;28;20111;-83
2023/07/08 10:45:49;;;;;;;3.92;3.63;;;;;;;30.88;40.81;100056.66;5010245;28;20038;-84
2023/07/08 10:48:43;;;;;;;9.27;3.40;;;;;;;30.68;42.48;100066.38;5010741;28;20452;-82
2023/07/08 10:51:29;;;;;;;3.50;3.20;;;;;;;30.66;40.39;100079.19;5011204;28;20042;-83
2023/07/08 10:54:03;;;;;;;4.28;3.88;;;;;;;30.81;39.73;100062.00;4933384;29;20186;-83
2023/07/08 10:56:38;;;;;;;5.88;3.50;;;;;;;30.91;40.74;100056.28;4932781;29;20126;-82
2023/07/08 10:59:13;;;;;;;4.00;3.60;;;;;;;31.10;40.95;100052.09;4933056;29;20080;-82
2023/07/08 11:02:03;;;;;;;3.72;3.42;;;;;;;31.25;39.89;100058.19;4933185;29;20032;-83
2023/07/08 11:05:04;;;;;;;3.47;3.05;;;;;;;31.33;39.78;100049.19;4932883;29;20054;-83
2023/07/08 11:07:43;;;;;;;4.55;4.15;;;;;;;31.41;40.25;100049.03;4932965;29;20043;-83
2023/07/08 11:10:17;;;;;;;3.88;3.22;;;;;;;31.26;38.72;100011.41;4933062;29;20059;-83
2023/07/08 11:12:52;;;;;;;3.47;3.10;;;;;;;31.21;38.89;100010.34;4932418;29;20527;-83
2023/07/08 11:15:30;;;;;;;4.20;3.47;;;;;;;31.33;38.66;100033.03;4933155;29;20040;-83
2023/07/08 11:18:33;;;;;;;5.53;4.13;;;;;;;31.44;39.81;100039.75;4932954;29;20128;-83
2023/07/08 11:21:13;;;;;;;3.78;3.20;;;;;;;31.39;39.08;100029.53;4930560;29;20040;-83
2023/07/08 11:23:44;;;;;;;4.00;3.53;;;;;;;31.44;39.81;100026.28;5006677;28;20073;-82
2023/07/08 11:26:17;;;;;;;4.78;3.47;;;;;;;31.55;40.03;100040.00;5010681;28;20026;-82
2023/07/08 11:28:43;;;;;;;3.60;3.30;;;;;;;31.52;39.55;100021.56;5010018;28;20078;-83
2023/07/08 11:31:09;;;;;;;4.20;3.10;;;;;;;31.61;40.11;100026.78;5044163;28;20428;-82